sensor_id;sensor_type;location;lat;lon;timestamp;pressure;altitude;pressure_sealevel;temperature;humidity
37824;BME280;23667;43.246;26.576;2022-12-26T00:01:37;100541.69;;;2.16;100.00
37824;BME280;23667;43.246;26.576;2022-12-26T00:04:03;100549.31;;;2.12;100.00
37824;BME280;23667;43.246;26.576;2022-12-26T00:06:31;100563.56;;;1.96;100.00
37824;BME280;23667;43.246;26.576;2022-12-26T00:08:58;100562.81;;;2.01;100.00
37824;BME280;23667;43.246;26.576;2022-12-26T00:11:24;100564.03;;;2.19;100.00
37824;BME280;23667;43.246;26.576;2022-12-26T00:13:57;100557.75;;;2.04;100.00
37824;BME280;23667;43.246;26.576;2022-12-26T00:16:24;100563.16;;;1.79;100.00
37824;BME280;23667;43.246;26.576;2022-12-26T00:18:50;100559.59;;;1.74;100.00
37824;BME280;23667;43.246;26.576;2022-12-26T00:21:17;100568.38;;;1.82;100.00
37824;BME280;23667;43.246;26.576;2022-12-26T00:23:43;100565.47;;;1.67;100.00
37824;BME280;23667;43.246;26.576;2022-12-26T00:26:15;100567.13;;;1.65;100.00
37824;BME280;23667;43.246;26.576;2022-12-26T00:28:41;100589.03;;;1.50;100.00
37824;BME280;23667;43.246;26.576;2022-12-26T00:31:13;100585.16;;;1.66;100.00
37824;BME280;23667;43.246;26.576;2022-12-26T00:33:39;100584.38;;;1.69;100.00
37824;BME280;23667;43.246;26.576;2022-12-26T00:36:13;100583.31;;;1.61;100.00
37824;BME280;23667;43.246;26.576;2022-12-26T00:38:39;100585.31;;;1.72;100.00
37824;BME280;23667;43.246;26.576;2022-12-26T00:41:06;100574.91;;;1.68;100.00
37824;BME280;23667;43.246;26.576;2022-12-26T00:43:32;100573.19;;;1.68;100.00
37824;BME280;23667;43.246;26.576;2022-12-26T00:45:58;100576.59;;;1.66;100.00
37824;BME280;23667;43.246;26.576;2022-12-26T00:48:23;100586.19;;;1.38;100.00
37824;BME280;23667;43.246;26.576;2022-12-26T00:50:49;100588.03;;;1.44;100.00
37824;BME280;23667;43.246;26.576;2022-12-26T00:53:15;100584.94;;;1.57;100.00
37824;BME280;23667;43.246;26.576;2022-12-26T00:55:40;100589.38;;;1.29;100.00
37824;BME280;23667;43.246;26.576;2022-12-26T00:58:06;100591.00;;;1.24;100.00
37824;BME280;23667;43.246;26.576;2022-12-26T01:00:32;100588.28;;;1.20;100.00
37824;BME280;23667;43.246;26.576;2022-12-26T01:02:57;100584.41;;;1.35;100.00
37824;BME280;23667;43.246;26.576;2022-12-26T01:05:23;100586.09;;;1.33;100.00
37824;BME280;23667;43.246;26.576;2022-12-26T01:07:49;100587.13;;;1.42;100.00
37824;BME280;23667;43.246;26.576;2022-12-26T01:10:14;100587.94;;;1.39;100.00
37824;BME280;23667;43.246;26.576;2022-12-26T01:12:40;100597.25;;;1.35;100.00
37824;BME280;23667;43.246;26.576;2022-12-26T01:15:06;100597.25;;;1.35;100.00
37824;BME280;23667;43.246;26.576;2022-12-26T01:17:33;100596.31;;;1.32;100.00
37824;BME280;23667;43.246;26.576;2022-12-26T01:19:59;100592.91;;;1.33;100.00
37824;BME280;23667;43.246;26.576;2022-12-26T01:22:25;100584.31;;;1.32;100.00
37824;BME280;23667;43.246;26.576;2022-12-26T01:24:57;100570.91;;;1.09;100.00
37824;BME280;23667;43.246;26.576;2022-12-26T01:27:24;100572.88;;;1.20;100.00
37824;BME280;23667;43.246;26.576;2022-12-26T01:29:51;100575.69;;;1.29;100.00
37824;BME280;23667;43.246;26.576;2022-12-26T01:32:21;100574.50;;;1.16;100.00
37824;BME280;23667;43.246;26.576;2022-12-26T01:34:47;100575.38;;;1.17;100.00
37824;BME280;23667;43.246;26.576;2022-12-26T01:37:14;100578.88;;;1.19;100.00
37824;BME280;23667;43.246;26.576;2022-12-26T01:39:40;100570.19;;;1.15;100.00
37824;BME280;23667;43.246;26.576;2022-12-26T01:42:15;100575.78;;;1.00;100.00
37824;BME280;23667;43.246;26.576;2022-12-26T01:45:03;100575.16;;;1.07;100.00
37824;BME280;23667;43.246;26.576;2022-12-26T01:47:40;100575.53;;;0.89;100.00
37824;BME280;23667;43.246;26.576;2022-12-26T01:50:20;100569.00;;;0.69;100.00
37824;BME280;23667;43.246;26.576;2022-12-26T01:52:48;100583.53;;;0.68;100.00
37824;BME280;23667;43.246;26.576;2022-12-26T01:55:16;100578.94;;;0.58;100.00
37824;BME280;23667;43.246;26.576;2022-12-26T01:57:49;100587.00;;;0.71;100.00
37824;BME280;23667;43.246;26.576;2022-12-26T02:00:17;100584.59;;;0.77;100.00
37824;BME280;23667;43.246;26.576;2022-12-26T02:02:43;100586.75;;;0.61;100.00
37824;BME280;23667;43.246;26.576;2022-12-26T02:05:28;100582.22;;;0.53;100.00
37824;BME280;23667;43.246;26.576;2022-12-26T02:08:13;100582.69;;;0.70;100.00
37824;BME280;23667;43.246;26.576;2022-12-26T02:11:05;100577.63;;;0.71;100.00
37824;BME280;23667;43.246;26.576;2022-12-26T02:13:35;100577.16;;;0.56;100.00
37824;BME280;23667;43.246;26.576;2022-12-26T02:16:04;100568.59;;;0.55;100.00
37824;BME280;23667;43.246;26.576;2022-12-26T02:18:31;100578.25;;;0.64;100.00
37824;BME280;23667;43.246;26.576;2022-12-26T02:40:26;100571.25;;;0.58;100.00
37824;BME280;23667;43.246;26.576;2022-12-26T02:43:15;100573.19;;;0.65;100.00
37824;BME280;23667;43.246;26.576;2022-12-26T02:54:55;100592.81;;;0.33;100.00
37824;BME280;23667;43.246;26.576;2022-12-26T02:57:57;100594.28;;;0.27;100.00
37824;BME280;23667;43.246;26.576;2022-12-26T03:00:44;100580.50;;;0.52;100.00
37824;BME280;23667;43.246;26.576;2022-12-26T03:03:32;100590.91;;;0.28;100.00
37824;BME280;23667;43.246;26.576;2022-12-26T03:06:28;100590.06;;;0.27;100.00
37824;BME280;23667;43.246;26.576;2022-12-26T03:09:21;100594.19;;;0.22;100.00
37824;BME280;23667;43.246;26.576;2022-12-26T03:12:21;100590.84;;;0.25;100.00
37824;BME280;23667;43.246;26.576;2022-12-26T03:15:12;100589.28;;;0.60;100.00
37824;BME280;23667;43.246;26.576;2022-12-26T03:17:52;100565.94;;;0.51;100.00
37824;BME280;23667;43.246;26.576;2022-12-26T03:20:28;100574.78;;;0.32;100.00
37824;BME280;23667;43.246;26.576;2022-12-26T03:23:11;100583.22;;;0.28;100.00
37824;BME280;23667;43.246;26.576;2022-12-26T03:25:58;100579.72;;;0.26;100.00
37824;BME280;23667;43.246;26.576;2022-12-26T03:28:46;100577.78;;;0.17;100.00
37824;BME280;23667;43.246;26.576;2022-12-26T03:31:13;100568.38;;;0.17;100.00
37824;BME280;23667;43.246;26.576;2022-12-26T03:33:42;100573.81;;;-0.02;100.00
37824;BME280;23667;43.246;26.576;2022-12-26T03:42:03;100564.72;;;-0.19;100.00
37824;BME280;23667;43.246;26.576;2022-12-26T03:45:21;100567.28;;;-0.19;100.00
37824;BME280;23667;43.246;26.576;2022-12-26T03:51:18;100569.22;;;-0.39;100.00
37824;BME280;23667;43.246;26.576;2022-12-26T03:54:15;100565.97;;;-0.35;100.00
37824;BME280;23667;43.246;26.576;2022-12-26T03:57:08;100567.75;;;-0.04;100.00
37824;BME280;23667;43.246;26.576;2022-12-26T04:00:13;100553.28;;;-0.02;100.00
37824;BME280;23667;43.246;26.576;2022-12-26T04:03:07;100558.16;;;-0.10;100.00
37824;BME280;23667;43.246;26.576;2022-12-26T04:05:54;100560.06;;;-0.04;100.00
37824;BME280;23667;43.246;26.576;2022-12-26T04:08:49;100569.28;;;-0.09;100.00
37824;BME280;23667;43.246;26.576;2022-12-26T04:11:37;100575.66;;;-0.52;100.00
37824;BME280;23667;43.246;26.576;2022-12-26T04:14:41;100589.53;;;-0.46;100.00
37824;BME280;23667;43.246;26.576;2022-12-26T04:20:49;100587.78;;;-0.19;100.00
37824;BME280;23667;43.246;26.576;2022-12-26T04:26:33;100594.22;;;-0.85;100.00
37824;BME280;23667;43.246;26.576;2022-12-26T04:29:20;100602.19;;;-1.01;100.00
37824;BME280;23667;43.246;26.576;2022-12-26T04:32:27;100608.38;;;-1.20;100.00
37824;BME280;23667;43.246;26.576;2022-12-26T04:38:05;100621.72;;;-1.29;100.00
37824;BME280;23667;43.246;26.576;2022-12-26T04:40:55;100636.53;;;-1.20;100.00
37824;BME280;23667;43.246;26.576;2022-12-26T04:43:42;100629.34;;;-1.06;100.00
37824;BME280;23667;43.246;26.576;2022-12-26T04:46:27;100621.41;;;-1.12;100.00
37824;BME280;23667;43.246;26.576;2022-12-26T04:48:53;100615.53;;;-1.10;100.00
37824;BME280;23667;43.246;26.576;2022-12-26T04:51:38;100612.44;;;-1.01;100.00
37824;BME280;23667;43.246;26.576;2022-12-26T04:54:04;100614.34;;;-1.20;100.00
37824;BME280;23667;43.246;26.576;2022-12-26T04:56:29;100619.97;;;-1.06;100.00
37824;BME280;23667;43.246;26.576;2022-12-26T04:58:55;100625.66;;;-0.63;100.00
37824;BME280;23667;43.246;26.576;2022-12-26T05:01:21;100621.97;;;-0.72;100.00
37824;BME280;23667;43.246;26.576;2022-12-26T05:04:05;100627.75;;;-1.03;100.00
37824;BME280;23667;43.246;26.576;2022-12-26T05:06:49;100616.91;;;-1.20;100.00
37824;BME280;23667;43.246;26.576;2022-12-26T05:09:33;100619.53;;;-1.18;100.00
37824;BME280;23667;43.246;26.576;2022-12-26T05:11:59;100620.00;;;-1.04;100.00
37824;BME280;23667;43.246;26.576;2022-12-26T05:14:24;100630.47;;;-0.98;100.00
37824;BME280;23667;43.246;26.576;2022-12-26T05:16:50;100628.31;;;-0.86;100.00
37824;BME280;23667;43.246;26.576;2022-12-26T05:19:34;100636.34;;;-0.77;100.00
37824;BME280;23667;43.246;26.576;2022-12-26T05:22:18;100634.56;;;-0.78;100.00
37824;BME280;23667;43.246;26.576;2022-12-26T05:25:04;100625.84;;;-0.83;100.00
37824;BME280;23667;43.246;26.576;2022-12-26T05:27:52;100622.09;;;-0.94;100.00
37824;BME280;23667;43.246;26.576;2022-12-26T05:30:36;100638.78;;;-1.04;100.00
37824;BME280;23667;43.246;26.576;2022-12-26T05:33:01;100641.34;;;-1.04;100.00
37824;BME280;23667;43.246;26.576;2022-12-26T05:35:45;100640.31;;;-0.85;100.00
37824;BME280;23667;43.246;26.576;2022-12-26T05:38:11;100637.88;;;-0.82;100.00
37824;BME280;23667;43.246;26.576;2022-12-26T05:40:36;100633.53;;;-0.83;100.00
37824;BME280;23667;43.246;26.576;2022-12-26T05:43:02;100633.69;;;-0.80;100.00
37824;BME280;23667;43.246;26.576;2022-12-26T05:45:27;100649.25;;;-0.74;100.00
37824;BME280;23667;43.246;26.576;2022-12-26T05:47:57;100649.91;;;-0.79;100.00
37824;BME280;23667;43.246;26.576;2022-12-26T05:50:24;100644.13;;;-0.74;100.00
37824;BME280;23667;43.246;26.576;2022-12-26T05:52:49;100638.09;;;-0.74;100.00
37824;BME280;23667;43.246;26.576;2022-12-26T05:55:15;100643.91;;;-0.80;100.00
37824;BME280;23667;43.246;26.576;2022-12-26T05:57:40;100651.47;;;-0.59;100.00
37824;BME280;23667;43.246;26.576;2022-12-26T06:00:06;100655.00;;;-0.55;100.00
37824;BME280;23667;43.246;26.576;2022-12-26T06:02:32;100661.50;;;-0.65;100.00
37824;BME280;23667;43.246;26.576;2022-12-26T06:04:57;100649.75;;;-0.58;100.00
37824;BME280;23667;43.246;26.576;2022-12-26T06:07:22;100641.69;;;-0.69;100.00
37824;BME280;23667;43.246;26.576;2022-12-26T06:09:48;100647.34;;;-0.54;100.00
37824;BME280;23667;43.246;26.576;2022-12-26T06:12:13;100650.72;;;-0.29;100.00
37824;BME280;23667;43.246;26.576;2022-12-26T06:14:39;100654.81;;;-0.34;100.00
37824;BME280;23667;43.246;26.576;2022-12-26T06:17:04;100651.53;;;-0.30;100.00
37824;BME280;23667;43.246;26.576;2022-12-26T06:19:29;100650.47;;;-0.10;100.00
37824;BME280;23667;43.246;26.576;2022-12-26T06:21:55;100654.94;;;-0.04;100.00
37824;BME280;23667;43.246;26.576;2022-12-26T06:24:20;100651.34;;;0.18;100.00
37824;BME280;23667;43.246;26.576;2022-12-26T06:26:46;100650.38;;;0.43;100.00
37824;BME280;23667;43.246;26.576;2022-12-26T06:29:11;100655.94;;;0.28;100.00
37824;BME280;23667;43.246;26.576;2022-12-26T06:31:37;100664.78;;;0.11;100.00
37824;BME280;23667;43.246;26.576;2022-12-26T06:34:02;100659.66;;;0.11;100.00
37824;BME280;23667;43.246;26.576;2022-12-26T06:36:28;100655.41;;;0.40;100.00
37824;BME280;23667;43.246;26.576;2022-12-26T06:38:54;100668.97;;;0.64;100.00
37824;BME280;23667;43.246;26.576;2022-12-26T06:41:22;100673.41;;;0.70;100.00
37824;BME280;23667;43.246;26.576;2022-12-26T06:43:48;100675.06;;;0.68;100.00
37824;BME280;23667;43.246;26.576;2022-12-26T06:46:17;100673.31;;;0.67;100.00
37824;BME280;23667;43.246;26.576;2022-12-26T06:48:45;100676.94;;;0.74;100.00
37824;BME280;23667;43.246;26.576;2022-12-26T06:51:13;100678.97;;;1.16;100.00
37824;BME280;23667;43.246;26.576;2022-12-26T06:53:39;100677.31;;;1.51;100.00
37824;BME280;23667;43.246;26.576;2022-12-26T06:56:06;100679.34;;;1.63;100.00
37824;BME280;23667;43.246;26.576;2022-12-26T06:58:32;100686.88;;;1.56;100.00
37824;BME280;23667;43.246;26.576;2022-12-26T07:01:09;100690.13;;;1.82;100.00
37824;BME280;23667;43.246;26.576;2022-12-26T07:03:35;100692.47;;;2.08;100.00
37824;BME280;23667;43.246;26.576;2022-12-26T07:06:05;100690.31;;;1.55;100.00
37824;BME280;23667;43.246;26.576;2022-12-26T07:08:32;100686.09;;;1.59;100.00
37824;BME280;23667;43.246;26.576;2022-12-26T07:10:58;100684.13;;;1.49;100.00
37824;BME280;23667;43.246;26.576;2022-12-26T07:13:23;100694.44;;;1.50;100.00
37824;BME280;23667;43.246;26.576;2022-12-26T07:15:49;100690.59;;;1.68;100.00
37824;BME280;23667;43.246;26.576;2022-12-26T07:18:14;100689.19;;;2.15;100.00
37824;BME280;23667;43.246;26.576;2022-12-26T07:20:39;100680.88;;;2.25;100.00
37824;BME280;23667;43.246;26.576;2022-12-26T07:23:05;100681.16;;;2.39;100.00
37824;BME280;23667;43.246;26.576;2022-12-26T07:25:30;100672.53;;;2.77;100.00
37824;BME280;23667;43.246;26.576;2022-12-26T07:27:56;100681.06;;;3.18;100.00
37824;BME280;23667;43.246;26.576;2022-12-26T07:30:22;100673.06;;;3.03;100.00
37824;BME280;23667;43.246;26.576;2022-12-26T07:32:47;100677.00;;;3.31;100.00
37824;BME280;23667;43.246;26.576;2022-12-26T07:35:13;100678.06;;;3.40;100.00
37824;BME280;23667;43.246;26.576;2022-12-26T07:37:38;100678.88;;;3.38;100.00
37824;BME280;23667;43.246;26.576;2022-12-26T07:40:04;100669.31;;;3.82;100.00
37824;BME280;23667;43.246;26.576;2022-12-26T07:42:30;100668.16;;;4.18;100.00
37824;BME280;23667;43.246;26.576;2022-12-26T07:44:55;100666.78;;;4.42;100.00
37824;BME280;23667;43.246;26.576;2022-12-26T07:47:21;100660.16;;;4.64;100.00
37824;BME280;23667;43.246;26.576;2022-12-26T07:49:46;100653.97;;;4.52;100.00
37824;BME280;23667;43.246;26.576;2022-12-26T07:52:12;100667.28;;;4.82;100.00
37824;BME280;23667;43.246;26.576;2022-12-26T07:54:37;100670.41;;;4.56;100.00
37824;BME280;23667;43.246;26.576;2022-12-26T07:57:03;100660.81;;;4.49;100.00
37824;BME280;23667;43.246;26.576;2022-12-26T07:59:28;100657.75;;;4.77;100.00
37824;BME280;23667;43.246;26.576;2022-12-26T08:01:53;100649.66;;;5.21;100.00
37824;BME280;23667;43.246;26.576;2022-12-26T08:04:21;100659.13;;;5.21;100.00
37824;BME280;23667;43.246;26.576;2022-12-26T08:06:47;100658.88;;;4.98;100.00
37824;BME280;23667;43.246;26.576;2022-12-26T08:09:14;100671.75;;;3.73;100.00
37824;BME280;23667;43.246;26.576;2022-12-26T08:11:42;100668.72;;;3.47;100.00
37824;BME280;23667;43.246;26.576;2022-12-26T08:14:12;100669.16;;;3.25;100.00
37824;BME280;23667;43.246;26.576;2022-12-26T08:16:41;100673.34;;;3.18;100.00
37824;BME280;23667;43.246;26.576;2022-12-26T08:19:06;100673.56;;;2.86;100.00
37824;BME280;23667;43.246;26.576;2022-12-26T08:21:32;100689.56;;;2.70;100.00
37824;BME280;23667;43.246;26.576;2022-12-26T08:23:57;100692.75;;;2.99;100.00
37824;BME280;23667;43.246;26.576;2022-12-26T08:26:22;100681.69;;;3.06;100.00
37824;BME280;23667;43.246;26.576;2022-12-26T08:28:50;100679.81;;;2.97;100.00
37824;BME280;23667;43.246;26.576;2022-12-26T08:31:15;100673.19;;;2.66;100.00
37824;BME280;23667;43.246;26.576;2022-12-26T08:33:41;100677.16;;;2.93;100.00
37824;BME280;23667;43.246;26.576;2022-12-26T08:36:09;100681.88;;;3.14;100.00
37824;BME280;23667;43.246;26.576;2022-12-26T08:38:35;100685.00;;;3.45;100.00
37824;BME280;23667;43.246;26.576;2022-12-26T08:41:01;100664.13;;;3.79;100.00
37824;BME280;23667;43.246;26.576;2022-12-26T08:43:27;100658.34;;;3.96;100.00
37824;BME280;23667;43.246;26.576;2022-12-26T08:46:19;100650.56;;;4.53;100.00
37824;BME280;23667;43.246;26.576;2022-12-26T08:48:46;100641.88;;;4.48;100.00
37824;BME280;23667;43.246;26.576;2022-12-26T08:51:14;100629.34;;;4.79;100.00
37824;BME280;23667;43.246;26.576;2022-12-26T08:53:41;100619.78;;;4.72;100.00
37824;BME280;23667;43.246;26.576;2022-12-26T08:56:09;100618.22;;;4.83;100.00
37824;BME280;23667;43.246;26.576;2022-12-26T08:58:34;100613.88;;;4.81;100.00
37824;BME280;23667;43.246;26.576;2022-12-26T09:01:14;100610.81;;;5.17;100.00
37824;BME280;23667;43.246;26.576;2022-12-26T09:03:40;100610.22;;;5.47;100.00
37824;BME280;23667;43.246;26.576;2022-12-26T09:06:06;100605.50;;;6.05;100.00
37824;BME280;23667;43.246;26.576;2022-12-26T09:08:33;100591.53;;;5.83;100.00
37824;BME280;23667;43.246;26.576;2022-12-26T09:11:13;100594.09;;;5.79;100.00
37824;BME280;23667;43.246;26.576;2022-12-26T09:13:40;100582.28;;;6.21;100.00
37824;BME280;23667;43.246;26.576;2022-12-26T09:16:29;100572.84;;;6.29;100.00
37824;BME280;23667;43.246;26.576;2022-12-26T09:18:57;100577.41;;;6.97;100.00
37824;BME280;23667;43.246;26.576;2022-12-26T09:21:24;100574.72;;;6.71;100.00
37824;BME280;23667;43.246;26.576;2022-12-26T09:23:49;100567.81;;;6.67;100.00
37824;BME280;23667;43.246;26.576;2022-12-26T09:26:18;100563.47;;;6.58;100.00
37824;BME280;23667;43.246;26.576;2022-12-26T09:28:44;100553.81;;;6.19;100.00
37824;BME280;23667;43.246;26.576;2022-12-26T09:31:20;100559.78;;;6.09;100.00
37824;BME280;23667;43.246;26.576;2022-12-26T09:33:45;100572.03;;;6.39;100.00
37824;BME280;23667;43.246;26.576;2022-12-26T09:36:16;100574.75;;;6.74;100.00
37824;BME280;23667;43.246;26.576;2022-12-26T09:38:43;100567.94;;;7.04;100.00
37824;BME280;23667;43.246;26.576;2022-12-26T09:44:27;100556.56;;;8.23;100.00
37824;BME280;23667;43.246;26.576;2022-12-26T09:49:20;100540.59;;;9.03;100.00
37824;BME280;23667;43.246;26.576;2022-12-26T09:51:49;100540.03;;;8.55;100.00
37824;BME280;23667;43.246;26.576;2022-12-26T09:54:41;100539.91;;;8.73;100.00
37824;BME280;23667;43.246;26.576;2022-12-26T09:57:24;100533.97;;;8.50;100.00
37824;BME280;23667;43.246;26.576;2022-12-26T10:00:00;100536.75;;;7.87;100.00
37824;BME280;23667;43.246;26.576;2022-12-26T10:02:28;100534.03;;;8.22;100.00
37824;BME280;23667;43.246;26.576;2022-12-26T10:04:54;100535.94;;;7.37;100.00
37824;BME280;23667;43.246;26.576;2022-12-26T10:07:38;100539.38;;;7.18;100.00
37824;BME280;23667;43.246;26.576;2022-12-26T10:13:17;100519.47;;;7.78;100.00
37824;BME280;23667;43.246;26.576;2022-12-26T10:15:57;100516.75;;;8.23;100.00
37824;BME280;23667;43.246;26.576;2022-12-26T10:23:49;100506.63;;;9.20;100.00
37824;BME280;23667;43.246;26.576;2022-12-26T10:26:20;100506.44;;;9.43;100.00
37824;BME280;23667;43.246;26.576;2022-12-26T10:31:24;100504.25;;;8.89;100.00
37824;BME280;23667;43.246;26.576;2022-12-26T10:36:31;100501.97;;;8.32;100.00
37824;BME280;23667;43.246;26.576;2022-12-26T10:39:01;100487.47;;;7.50;100.00
37824;BME280;23667;43.246;26.576;2022-12-26T10:41:34;100488.34;;;7.49;100.00
37824;BME280;23667;43.246;26.576;2022-12-26T10:44:03;100483.06;;;7.89;100.00
37824;BME280;23667;43.246;26.576;2022-12-26T10:49:15;100450.38;;;9.91;100.00
37824;BME280;23667;43.246;26.576;2022-12-26T10:51:43;100449.91;;;10.33;100.00
37824;BME280;23667;43.246;26.576;2022-12-26T10:54:14;100450.44;;;9.87;100.00
37824;BME280;23667;43.246;26.576;2022-12-26T10:56:43;100453.09;;;8.91;100.00
37824;BME280;23667;43.246;26.576;2022-12-26T10:59:22;100463.72;;;8.59;100.00
37824;BME280;23667;43.246;26.576;2022-12-26T11:01:48;100457.75;;;8.45;100.00
37824;BME280;23667;43.246;26.576;2022-12-26T11:04:21;100464.69;;;8.38;100.00
37824;BME280;23667;43.246;26.576;2022-12-26T11:06:49;100456.16;;;8.04;100.00
37824;BME280;23667;43.246;26.576;2022-12-26T11:11:58;100456.38;;;7.30;100.00
37824;BME280;23667;43.246;26.576;2022-12-26T11:14:30;100471.06;;;6.94;100.00
37824;BME280;23667;43.246;26.576;2022-12-26T11:17:01;100475.28;;;6.34;100.00
37824;BME280;23667;43.246;26.576;2022-12-26T11:19:35;100480.31;;;6.00;100.00
37824;BME280;23667;43.246;26.576;2022-12-26T11:22:26;100473.44;;;5.99;100.00
37824;BME280;23667;43.246;26.576;2022-12-26T11:27:54;100469.16;;;6.12;100.00
37824;BME280;23667;43.246;26.576;2022-12-26T11:30:24;100462.41;;;6.54;100.00
37824;BME280;23667;43.246;26.576;2022-12-26T11:35:28;100464.06;;;6.32;100.00
37824;BME280;23667;43.246;26.576;2022-12-26T11:37:59;100455.38;;;6.18;100.00
37824;BME280;23667;43.246;26.576;2022-12-26T11:40:38;100446.72;;;6.11;100.00
37824;BME280;23667;43.246;26.576;2022-12-26T11:43:32;100439.81;;;6.11;100.00
37824;BME280;23667;43.246;26.576;2022-12-26T11:45:58;100455.41;;;6.30;100.00
37824;BME280;23667;43.246;26.576;2022-12-26T11:48:25;100445.03;;;6.24;100.00
37824;BME280;23667;43.246;26.576;2022-12-26T11:50:52;100439.94;;;6.45;100.00
37824;BME280;23667;43.246;26.576;2022-12-26T11:53:21;100443.28;;;6.18;100.00
37824;BME280;23667;43.246;26.576;2022-12-26T11:56:01;100451.06;;;6.13;100.00
37824;BME280;23667;43.246;26.576;2022-12-26T11:58:28;100440.75;;;6.32;100.00
37824;BME280;23667;43.246;26.576;2022-12-26T12:03:28;100438.16;;;6.38;100.00
37824;BME280;23667;43.246;26.576;2022-12-26T12:11:26;100443.28;;;6.18;100.00
37824;BME280;23667;43.246;26.576;2022-12-26T12:19:53;100455.38;;;6.10;100.00
37824;BME280;23667;43.246;26.576;2022-12-26T12:48:56;100457.22;;;6.86;100.00
37824;BME280;23667;43.246;26.576;2022-12-26T12:59:03;100451.22;;;7.04;100.00
37824;BME280;23667;43.246;26.576;2022-12-26T13:01:39;100456.41;;;7.04;100.00
37824;BME280;23667;43.246;26.576;2022-12-26T13:06:53;100448.59;;;7.02;100.00
37824;BME280;23667;43.246;26.576;2022-12-26T13:09:44;100449.44;;;6.83;100.00
37824;BME280;23667;43.246;26.576;2022-12-26T13:12:18;100444.28;;;6.83;100.00
37824;BME280;23667;43.246;26.576;2022-12-26T13:15:08;100444.31;;;6.98;100.00
37824;BME280;23667;43.246;26.576;2022-12-26T13:17:48;100447.72;;;7.10;100.00
37824;BME280;23667;43.246;26.576;2022-12-26T13:22:54;100439.13;;;7.01;100.00
37824;BME280;23667;43.246;26.576;2022-12-26T13:25:46;100434.75;;;7.00;100.00
37824;BME280;23667;43.246;26.576;2022-12-26T13:28:21;100434.75;;;7.10;100.00
37824;BME280;23667;43.246;26.576;2022-12-26T13:30:57;100425.28;;;7.10;100.00
37824;BME280;23667;43.246;26.576;2022-12-26T13:33:23;100423.50;;;7.21;100.00
37824;BME280;23667;43.246;26.576;2022-12-26T13:35:59;100432.13;;;7.36;100.00
37824;BME280;23667;43.246;26.576;2022-12-26T13:41:23;100422.59;;;7.47;100.00
37824;BME280;23667;43.246;26.576;2022-12-26T13:49:34;100428.69;;;7.29;100.00
37824;BME280;23667;43.246;26.576;2022-12-26T13:57:38;100430.41;;;7.27;100.00
37824;BME280;23667;43.246;26.576;2022-12-26T14:05:23;100416.63;;;7.14;100.00
37824;BME280;23667;43.246;26.576;2022-12-26T14:16:02;100414.91;;;6.87;100.00
37824;BME280;23667;43.246;26.576;2022-12-26T14:24:30;100427.00;;;6.88;100.00
37824;BME280;23667;43.246;26.576;2022-12-26T14:27:22;100420.06;;;6.67;100.00
37824;BME280;23667;43.246;26.576;2022-12-26T14:38:17;100414.00;;;6.45;100.00
37824;BME280;23667;43.246;26.576;2022-12-26T14:41:06;100418.28;;;6.26;100.00
37824;BME280;23667;43.246;26.576;2022-12-26T14:45:59;100422.56;;;6.18;100.00
37824;BME280;23667;43.246;26.576;2022-12-26T14:50:54;100421.63;;;5.93;100.00
37824;BME280;23667;43.246;26.576;2022-12-26T14:53:31;100412.94;;;5.86;100.00
37824;BME280;23667;43.246;26.576;2022-12-26T15:09:09;100415.31;;;5.39;100.00
37824;BME280;23667;43.246;26.576;2022-12-26T15:17:49;100414.28;;;5.15;100.00
37824;BME280;23667;43.246;26.576;2022-12-26T15:36:48;100433.59;;;4.55;100.00
37824;BME280;23667;43.246;26.576;2022-12-26T15:42:19;100435.13;;;4.36;100.00
37824;BME280;23667;43.246;26.576;2022-12-26T15:45:11;100432.47;;;4.28;100.00
37824;BME280;23667;43.246;26.576;2022-12-26T15:47:57;100430.66;;;4.23;100.00
37824;BME280;23667;43.246;26.576;2022-12-26T15:53:12;100428.91;;;4.17;100.00
37824;BME280;23667;43.246;26.576;2022-12-26T15:55:59;100425.38;;;4.09;100.00
37824;BME280;23667;43.246;26.576;2022-12-26T16:01:09;100426.25;;;4.09;100.00
37824;BME280;23667;43.246;26.576;2022-12-26T16:03:46;100420.16;;;4.03;100.00
37824;BME280;23667;43.246;26.576;2022-12-26T16:11:59;100416.59;;;3.96;100.00
37824;BME280;23667;43.246;26.576;2022-12-26T16:14:29;100407.09;;;3.92;100.00
37824;BME280;23667;43.246;26.576;2022-12-26T16:19:47;100408.72;;;3.84;100.00
37824;BME280;23667;43.246;26.576;2022-12-26T16:25:14;100416.47;;;3.82;100.00
37824;BME280;23667;43.246;26.576;2022-12-26T16:27:41;100404.38;;;3.81;100.00
37824;BME280;23667;43.246;26.576;2022-12-26T16:30:20;100407.00;;;3.84;100.00
37824;BME280;23667;43.246;26.576;2022-12-26T16:32:46;100397.47;;;3.76;100.00
37824;BME280;23667;43.246;26.576;2022-12-26T16:38:28;100395.63;;;3.67;100.00
37824;BME280;23667;43.246;26.576;2022-12-26T16:40:54;100392.16;;;3.65;100.00
37824;BME280;23667;43.246;26.576;2022-12-26T16:43:25;100396.47;;;3.64;100.00
37824;BME280;23667;43.246;26.576;2022-12-26T16:45:53;100388.56;;;3.52;100.00
37824;BME280;23667;43.246;26.576;2022-12-26T16:48:25;100386.81;;;3.50;100.00
37824;BME280;23667;43.246;26.576;2022-12-26T16:50:55;100384.19;;;3.47;100.00
37824;BME280;23667;43.246;26.576;2022-12-26T16:53:41;100386.78;;;3.47;100.00
37824;BME280;23667;43.246;26.576;2022-12-26T16:58:38;100379.75;;;3.36;100.00
37824;BME280;23667;43.246;26.576;2022-12-26T17:01:07;100374.66;;;3.41;100.00
37824;BME280;23667;43.246;26.576;2022-12-26T17:03:42;100372.78;;;3.31;100.00